sensor_id;sensor_type;location;lat;lon;timestamp;temperature;humidity
25991;DHT22;13779;-33.886;151.198;2023-06-04T00:01:19;18.40;99.90
25991;DHT22;13779;-33.886;151.198;2023-06-04T00:03:49;18.40;99.90
25991;DHT22;13779;-33.886;151.198;2023-06-04T00:06:20;18.40;99.90
25991;DHT22;13779;-33.886;151.198;2023-06-04T00:08:50;18.40;99.90
25991;DHT22;13779;-33.886;151.198;2023-06-04T00:11:21;18.30;99.90
25991;DHT22;13779;-33.886;151.198;2023-06-04T00:13:51;18.30;99.90
25991;DHT22;13779;-33.886;151.198;2023-06-04T00:16:22;18.30;99.90
25991;DHT22;13779;-33.886;151.198;2023-06-04T00:18:52;18.30;99.90
25991;DHT22;13779;-33.886;151.198;2023-06-04T00:21:23;18.20;99.90
25991;DHT22;13779;-33.886;151.198;2023-06-04T00:23:54;18.20;99.90
25991;DHT22;13779;-33.886;151.198;2023-06-04T00:26:24;18.20;99.90
25991;DHT22;13779;-33.886;151.198;2023-06-04T00:28:55;18.10;99.90
25991;DHT22;13779;-33.886;151.198;2023-06-04T00:31:25;18.10;99.90
25991;DHT22;13779;-33.886;151.198;2023-06-04T00:33:56;18.10;99.90
25991;DHT22;13779;-33.886;151.198;2023-06-04T00:36:27;18.10;99.90
25991;DHT22;13779;-33.886;151.198;2023-06-04T00:38:57;18.00;99.90
25991;DHT22;13779;-33.886;151.198;2023-06-04T00:41:31;18.10;99.90
25991;DHT22;13779;-33.886;151.198;2023-06-04T00:44:02;18.10;99.90
25991;DHT22;13779;-33.886;151.198;2023-06-04T00:46:36;18.10;99.90
25991;DHT22;13779;-33.886;151.198;2023-06-04T00:49:07;18.10;99.90
25991;DHT22;13779;-33.886;151.198;2023-06-04T00:51:37;18.20;99.90
25991;DHT22;13779;-33.886;151.198;2023-06-04T00:54:08;18.20;99.90
25991;DHT22;13779;-33.886;151.198;2023-06-04T00:56:39;18.20;99.90
25991;DHT22;13779;-33.886;151.198;2023-06-04T00:59:10;18.20;99.90
25991;DHT22;13779;-33.886;151.198;2023-06-04T01:04:24;18.30;99.90
25991;DHT22;13779;-33.886;151.198;2023-06-04T01:06:57;18.30;99.90
25991;DHT22;13779;-33.886;151.198;2023-06-04T01:09:31;18.40;99.90
25991;DHT22;13779;-33.886;151.198;2023-06-04T01:12:05;18.40;99.90
25991;DHT22;13779;-33.886;151.198;2023-06-04T01:14:36;18.40;99.90
25991;DHT22;13779;-33.886;151.198;2023-06-04T01:17:26;18.40;99.90
25991;DHT22;13779;-33.886;151.198;2023-06-04T01:25:42;18.40;99.90
25991;DHT22;13779;-33.886;151.198;2023-06-04T01:28:17;18.40;99.90
25991;DHT22;13779;-33.886;151.198;2023-06-04T01:30:50;18.30;99.90
25991;DHT22;13779;-33.886;151.198;2023-06-04T01:33:20;18.30;99.90
25991;DHT22;13779;-33.886;151.198;2023-06-04T01:35:51;18.30;99.90
25991;DHT22;13779;-33.886;151.198;2023-06-04T01:38:24;18.30;99.90
25991;DHT22;13779;-33.886;151.198;2023-06-04T01:40:58;18.30;99.90
25991;DHT22;13779;-33.886;151.198;2023-06-04T01:43:30;18.30;99.90
25991;DHT22;13779;-33.886;151.198;2023-06-04T01:46:05;18.30;99.90
25991;DHT22;13779;-33.886;151.198;2023-06-04T01:48:39;18.40;99.90
25991;DHT22;13779;-33.886;151.198;2023-06-04T01:51:10;18.40;99.90
25991;DHT22;13779;-33.886;151.198;2023-06-04T01:53:40;18.40;99.90
25991;DHT22;13779;-33.886;151.198;2023-06-04T01:56:10;18.50;99.90
25991;DHT22;13779;-33.886;151.198;2023-06-04T01:58:42;18.50;99.90
25991;DHT22;13779;-33.886;151.198;2023-06-04T02:01:12;18.50;99.90
25991;DHT22;13779;-33.886;151.198;2023-06-04T02:03:46;18.60;99.90
25991;DHT22;13779;-33.886;151.198;2023-06-04T02:06:16;18.60;99.90
25991;DHT22;13779;-33.886;151.198;2023-06-04T02:08:47;18.60;99.90
25991;DHT22;13779;-33.886;151.198;2023-06-04T02:11:17;18.60;99.90
25991;DHT22;13779;-33.886;151.198;2023-06-04T02:13:47;18.50;99.90
25991;DHT22;13779;-33.886;151.198;2023-06-04T02:16:18;18.60;99.90
25991;DHT22;13779;-33.886;151.198;2023-06-04T02:18:48;18.50;99.90
25991;DHT22;13779;-33.886;151.198;2023-06-04T02:21:18;18.50;99.90
25991;DHT22;13779;-33.886;151.198;2023-06-04T02:23:49;18.60;99.90
25991;DHT22;13779;-33.886;151.198;2023-06-04T02:26:19;18.60;99.90
25991;DHT22;13779;-33.886;151.198;2023-06-04T02:28:49;18.70;99.90
25991;DHT22;13779;-33.886;151.198;2023-06-04T02:31:19;18.60;99.90
25991;DHT22;13779;-33.886;151.198;2023-06-04T02:33:50;18.60;99.90
25991;DHT22;13779;-33.886;151.198;2023-06-04T02:36:20;18.50;99.90
25991;DHT22;13779;-33.886;151.198;2023-06-04T02:38:50;18.40;99.90
25991;DHT22;13779;-33.886;151.198;2023-06-04T02:41:21;18.40;99.90
25991;DHT22;13779;-33.886;151.198;2023-06-04T02:43:54;18.30;99.90
25991;DHT22;13779;-33.886;151.198;2023-06-04T02:46:25;18.30;99.90
25991;DHT22;13779;-33.886;151.198;2023-06-04T02:48:55;18.20;99.90
25991;DHT22;13779;-33.886;151.198;2023-06-04T02:51:25;18.20;99.90
25991;DHT22;13779;-33.886;151.198;2023-06-04T02:53:58;18.20;99.90
25991;DHT22;13779;-33.886;151.198;2023-06-04T02:56:29;18.20;99.90
25991;DHT22;13779;-33.886;151.198;2023-06-04T02:59:00;18.30;99.90
25991;DHT22;13779;-33.886;151.198;2023-06-04T03:01:31;18.30;99.90
25991;DHT22;13779;-33.886;151.198;2023-06-04T03:04:01;18.30;99.90
25991;DHT22;13779;-33.886;151.198;2023-06-04T03:06:39;18.40;99.90
25991;DHT22;13779;-33.886;151.198;2023-06-04T03:09:10;18.40;99.90
25991;DHT22;13779;-33.886;151.198;2023-06-04T03:11:40;18.40;99.90
25991;DHT22;13779;-33.886;151.198;2023-06-04T03:14:11;18.50;99.90
25991;DHT22;13779;-33.886;151.198;2023-06-04T03:16:41;18.60;99.90
25991;DHT22;13779;-33.886;151.198;2023-06-04T03:19:15;18.60;99.90
25991;DHT22;13779;-33.886;151.198;2023-06-04T03:21:46;18.60;99.90
25991;DHT22;13779;-33.886;151.198;2023-06-04T03:24:20;18.60;99.90
25991;DHT22;13779;-33.886;151.198;2023-06-04T03:26:50;18.60;99.90
25991;DHT22;13779;-33.886;151.198;2023-06-04T03:29:20;18.60;99.90
25991;DHT22;13779;-33.886;151.198;2023-06-04T03:31:51;18.70;99.90
25991;DHT22;13779;-33.886;151.198;2023-06-04T03:34:24;18.70;99.90
25991;DHT22;13779;-33.886;151.198;2023-06-04T03:36:55;18.70;99.90
25991;DHT22;13779;-33.886;151.198;2023-06-04T03:39:25;18.70;99.90
25991;DHT22;13779;-33.886;151.198;2023-06-04T03:41:56;18.70;99.90
25991;DHT22;13779;-33.886;151.198;2023-06-04T03:44:26;18.60;99.90
25991;DHT22;13779;-33.886;151.198;2023-06-04T03:46:56;18.60;99.90
25991;DHT22;13779;-33.886;151.198;2023-06-04T03:49:27;18.70;99.90
25991;DHT22;13779;-33.886;151.198;2023-06-04T03:51:57;18.70;99.90
25991;DHT22;13779;-33.886;151.198;2023-06-04T03:54:27;18.70;99.90
25991;DHT22;13779;-33.886;151.198;2023-06-04T03:56:58;18.70;99.90
25991;DHT22;13779;-33.886;151.198;2023-06-04T03:59:37;18.70;99.90
25991;DHT22;13779;-33.886;151.198;2023-06-04T04:02:08;18.80;99.90
25991;DHT22;13779;-33.886;151.198;2023-06-04T04:04:42;18.70;99.90
25991;DHT22;13779;-33.886;151.198;2023-06-04T04:07:16;18.70;99.90
25991;DHT22;13779;-33.886;151.198;2023-06-04T04:09:46;18.60;99.90
25991;DHT22;13779;-33.886;151.198;2023-06-04T04:12:17;18.60;99.90
25991;DHT22;13779;-33.886;151.198;2023-06-04T04:14:48;18.50;99.90
25991;DHT22;13779;-33.886;151.198;2023-06-04T04:17:18;18.50;99.90
25991;DHT22;13779;-33.886;151.198;2023-06-04T04:19:52;18.50;99.90
25991;DHT22;13779;-33.886;151.198;2023-06-04T04:22:23;18.50;99.90
25991;DHT22;13779;-33.886;151.198;2023-06-04T04:24:54;18.50;99.90
25991;DHT22;13779;-33.886;151.198;2023-06-04T04:27:29;18.40;99.90
25991;DHT22;13779;-33.886;151.198;2023-06-04T04:30:00;18.40;99.90
25991;DHT22;13779;-33.886;151.198;2023-06-04T04:32:31;18.30;99.90
25991;DHT22;13779;-33.886;151.198;2023-06-04T04:35:02;18.30;99.90
25991;DHT22;13779;-33.886;151.198;2023-06-04T04:37:32;18.30;99.90
25991;DHT22;13779;-33.886;151.198;2023-06-04T04:40:03;18.30;99.90
25991;DHT22;13779;-33.886;151.198;2023-06-04T04:42:34;18.30;99.90
25991;DHT22;13779;-33.886;151.198;2023-06-04T04:45:08;18.30;99.90
25991;DHT22;13779;-33.886;151.198;2023-06-04T04:47:39;18.30;99.90
25991;DHT22;13779;-33.886;151.198;2023-06-04T04:50:11;18.30;99.90
25991;DHT22;13779;-33.886;151.198;2023-06-04T04:52:41;18.20;99.90
25991;DHT22;13779;-33.886;151.198;2023-06-04T04:55:12;18.30;99.90
25991;DHT22;13779;-33.886;151.198;2023-06-04T04:57:43;18.40;99.90
25991;DHT22;13779;-33.886;151.198;2023-06-04T05:00:14;18.50;99.90
25991;DHT22;13779;-33.886;151.198;2023-06-04T05:02:45;18.60;99.90
25991;DHT22;13779;-33.886;151.198;2023-06-04T05:05:16;18.50;99.90
25991;DHT22;13779;-33.886;151.198;2023-06-04T05:07:47;18.50;99.90
25991;DHT22;13779;-33.886;151.198;2023-06-04T05:10:18;18.40;99.90
25991;DHT22;13779;-33.886;151.198;2023-06-04T05:12:56;18.40;99.90
25991;DHT22;13779;-33.886;151.198;2023-06-04T05:15:27;18.40;99.90
25991;DHT22;13779;-33.886;151.198;2023-06-04T05:17:59;18.30;99.90
25991;DHT22;13779;-33.886;151.198;2023-06-04T05:20:34;18.30;99.90
25991;DHT22;13779;-33.886;151.198;2023-06-04T05:23:07;18.20;99.90
25991;DHT22;13779;-33.886;151.198;2023-06-04T05:25:42;18.20;99.90
25991;DHT22;13779;-33.886;151.198;2023-06-04T05:28:12;18.20;99.90
25991;DHT22;13779;-33.886;151.198;2023-06-04T05:30:43;18.20;99.90
25991;DHT22;13779;-33.886;151.198;2023-06-04T05:33:18;18.20;99.90
25991;DHT22;13779;-33.886;151.198;2023-06-04T05:35:50;18.20;99.90
25991;DHT22;13779;-33.886;151.198;2023-06-04T05:38:29;18.20;99.90
25991;DHT22;13779;-33.886;151.198;2023-06-04T05:40:59;18.20;99.90
25991;DHT22;13779;-33.886;151.198;2023-06-04T05:43:30;18.20;99.90
25991;DHT22;13779;-33.886;151.198;2023-06-04T05:46:04;18.10;99.90
25991;DHT22;13779;-33.886;151.198;2023-06-04T05:48:37;18.10;99.90
25991;DHT22;13779;-33.886;151.198;2023-06-04T05:51:08;18.10;99.90
25991;DHT22;13779;-33.886;151.198;2023-06-04T05:53:39;18.00;99.90
25991;DHT22;13779;-33.886;151.198;2023-06-04T05:56:13;18.00;99.90
25991;DHT22;13779;-33.886;151.198;2023-06-04T05:58:50;18.00;99.90
25991;DHT22;13779;-33.886;151.198;2023-06-04T06:01:21;18.00;99.90
25991;DHT22;13779;-33.886;151.198;2023-06-04T06:03:52;18.00;99.90
25991;DHT22;13779;-33.886;151.198;2023-06-04T06:06:25;17.90;99.90
25991;DHT22;13779;-33.886;151.198;2023-06-04T06:08:56;17.90;99.90
25991;DHT22;13779;-33.886;151.198;2023-06-04T06:11:27;17.80;99.90
25991;DHT22;13779;-33.886;151.198;2023-06-04T06:13:57;17.80;99.90
25991;DHT22;13779;-33.886;151.198;2023-06-04T06:16:28;17.80;99.90
25991;DHT22;13779;-33.886;151.198;2023-06-04T06:19:00;17.70;99.90
25991;DHT22;13779;-33.886;151.198;2023-06-04T06:21:31;17.70;99.90
25991;DHT22;13779;-33.886;151.198;2023-06-04T06:24:02;17.80;99.90
25991;DHT22;13779;-33.886;151.198;2023-06-04T06:26:33;17.70;99.90
25991;DHT22;13779;-33.886;151.198;2023-06-04T06:29:04;17.80;99.90
25991;DHT22;13779;-33.886;151.198;2023-06-04T06:31:34;17.80;99.90
25991;DHT22;13779;-33.886;151.198;2023-06-04T06:34:05;17.80;99.90
25991;DHT22;13779;-33.886;151.198;2023-06-04T06:36:36;17.80;99.90
25991;DHT22;13779;-33.886;151.198;2023-06-04T06:39:07;17.80;99.90
25991;DHT22;13779;-33.886;151.198;2023-06-04T06:41:38;17.80;99.90
25991;DHT22;13779;-33.886;151.198;2023-06-04T06:44:09;17.80;99.90
25991;DHT22;13779;-33.886;151.198;2023-06-04T06:46:40;17.80;99.90
25991;DHT22;13779;-33.886;151.198;2023-06-04T06:49:10;17.80;99.90
25991;DHT22;13779;-33.886;151.198;2023-06-04T06:51:41;17.80;99.90
25991;DHT22;13779;-33.886;151.198;2023-06-04T06:54:15;17.70;99.90
25991;DHT22;13779;-33.886;151.198;2023-06-04T06:56:46;17.80;99.90
25991;DHT22;13779;-33.886;151.198;2023-06-04T06:59:18;17.70;99.90
25991;DHT22;13779;-33.886;151.198;2023-06-04T07:01:48;17.70;99.90
25991;DHT22;13779;-33.886;151.198;2023-06-04T07:04:19;17.70;99.90
25991;DHT22;13779;-33.886;151.198;2023-06-04T07:06:49;17.70;99.90
25991;DHT22;13779;-33.886;151.198;2023-06-04T07:09:20;17.70;99.90
25991;DHT22;13779;-33.886;151.198;2023-06-04T07:11:51;17.70;99.90
25991;DHT22;13779;-33.886;151.198;2023-06-04T07:14:21;17.70;99.90
25991;DHT22;13779;-33.886;151.198;2023-06-04T07:16:52;17.60;99.90
25991;DHT22;13779;-33.886;151.198;2023-06-04T07:19:23;17.60;99.90
25991;DHT22;13779;-33.886;151.198;2023-06-04T07:21:54;17.60;99.90
25991;DHT22;13779;-33.886;151.198;2023-06-04T07:24:24;17.60;99.90
25991;DHT22;13779;-33.886;151.198;2023-06-04T07:26:55;17.60;99.90
25991;DHT22;13779;-33.886;151.198;2023-06-04T07:29:26;17.60;99.90
25991;DHT22;13779;-33.886;151.198;2023-06-04T07:31:57;17.60;99.90
25991;DHT22;13779;-33.886;151.198;2023-06-04T07:34:28;17.60;99.90
25991;DHT22;13779;-33.886;151.198;2023-06-04T07:36:58;17.60;99.90
25991;DHT22;13779;-33.886;151.198;2023-06-04T07:39:29;17.70;99.90
25991;DHT22;13779;-33.886;151.198;2023-06-04T07:42:00;17.60;99.90
25991;DHT22;13779;-33.886;151.198;2023-06-04T07:44:31;17.60;99.90
25991;DHT22;13779;-33.886;151.198;2023-06-04T07:47:01;17.70;99.90
25991;DHT22;13779;-33.886;151.198;2023-06-04T07:49:32;17.70;99.90
25991;DHT22;13779;-33.886;151.198;2023-06-04T07:52:10;17.60;99.90
25991;DHT22;13779;-33.886;151.198;2023-06-04T07:54:41;17.60;99.90
25991;DHT22;13779;-33.886;151.198;2023-06-04T07:57:12;17.60;99.90
25991;DHT22;13779;-33.886;151.198;2023-06-04T07:59:43;17.60;99.90
25991;DHT22;13779;-33.886;151.198;2023-06-04T08:02:13;17.50;99.90
25991;DHT22;13779;-33.886;151.198;2023-06-04T08:04:45;17.50;99.90
25991;DHT22;13779;-33.886;151.198;2023-06-04T08:07:18;17.40;99.90
25991;DHT22;13779;-33.886;151.198;2023-06-04T08:09:49;17.40;99.90
25991;DHT22;13779;-33.886;151.198;2023-06-04T08:12:20;17.40;99.90
25991;DHT22;13779;-33.886;151.198;2023-06-04T08:14:50;17.50;99.90
25991;DHT22;13779;-33.886;151.198;2023-06-04T08:17:21;17.40;99.90
25991;DHT22;13779;-33.886;151.198;2023-06-04T08:19:52;17.50;99.90
25991;DHT22;13779;-33.886;151.198;2023-06-04T08:22:23;17.50;99.90
25991;DHT22;13779;-33.886;151.198;2023-06-04T08:24:54;17.40;99.90
25991;DHT22;13779;-33.886;151.198;2023-06-04T08:27:25;17.50;99.90
25991;DHT22;13779;-33.886;151.198;2023-06-04T08:29:56;17.40;99.90
25991;DHT22;13779;-33.886;151.198;2023-06-04T08:32:27;17.40;99.90
25991;DHT22;13779;-33.886;151.198;2023-06-04T08:35:00;17.40;99.90
25991;DHT22;13779;-33.886;151.198;2023-06-04T08:37:31;17.40;99.90
25991;DHT22;13779;-33.886;151.198;2023-06-04T08:40:05;17.30;99.90
25991;DHT22;13779;-33.886;151.198;2023-06-04T08:42:45;17.30;99.90
25991;DHT22;13779;-33.886;151.198;2023-06-04T08:45:17;17.30;99.90
25991;DHT22;13779;-33.886;151.198;2023-06-04T08:47:51;17.20;99.90
25991;DHT22;13779;-33.886;151.198;2023-06-04T08:50:23;17.30;99.90
25991;DHT22;13779;-33.886;151.198;2023-06-04T08:52:56;17.30;99.90
25991;DHT22;13779;-33.886;151.198;2023-06-04T08:55:27;17.30;99.90
25991;DHT22;13779;-33.886;151.198;2023-06-04T08:58:00;17.30;99.90
25991;DHT22;13779;-33.886;151.198;2023-06-04T09:00:33;17.30;99.90
25991;DHT22;13779;-33.886;151.198;2023-06-04T09:03:09;17.30;99.90
25991;DHT22;13779;-33.886;151.198;2023-06-04T09:05:41;17.20;99.90
25991;DHT22;13779;-33.886;151.198;2023-06-04T09:08:18;17.20;99.90
25991;DHT22;13779;-33.886;151.198;2023-06-04T09:10:53;17.30;99.90
25991;DHT22;13779;-33.886;151.198;2023-06-04T09:13:29;17.30;99.90
25991;DHT22;13779;-33.886;151.198;2023-06-04T09:16:03;17.30;99.90
25991;DHT22;13779;-33.886;151.198;2023-06-04T09:18:34;17.30;99.90
25991;DHT22;13779;-33.886;151.198;2023-06-04T09:21:09;17.30;99.90
25991;DHT22;13779;-33.886;151.198;2023-06-04T09:23:47;17.30;99.90
25991;DHT22;13779;-33.886;151.198;2023-06-04T09:26:17;17.30;99.90
25991;DHT22;13779;-33.886;151.198;2023-06-04T09:28:49;17.30;99.90
25991;DHT22;13779;-33.886;151.198;2023-06-04T09:31:19;17.20;99.90
25991;DHT22;13779;-33.886;151.198;2023-06-04T09:33:52;17.20;99.90
25991;DHT22;13779;-33.886;151.198;2023-06-04T09:36:22;17.30;99.90
25991;DHT22;13779;-33.886;151.198;2023-06-04T09:39:00;17.20;99.90
25991;DHT22;13779;-33.886;151.198;2023-06-04T09:41:31;17.20;99.90
25991;DHT22;13779;-33.886;151.198;2023-06-04T09:44:03;17.20;99.90
25991;DHT22;13779;-33.886;151.198;2023-06-04T09:46:33;17.20;99.90
25991;DHT22;13779;-33.886;151.198;2023-06-04T09:49:06;17.20;99.90
25991;DHT22;13779;-33.886;151.198;2023-06-04T09:51:47;17.20;99.90
25991;DHT22;13779;-33.886;151.198;2023-06-04T09:54:21;17.20;99.90
25991;DHT22;13779;-33.886;151.198;2023-06-04T09:56:52;17.20;99.90
25991;DHT22;13779;-33.886;151.198;2023-06-04T09:59:23;17.20;99.90
25991;DHT22;13779;-33.886;151.198;2023-06-04T10:02:00;17.10;99.90
25991;DHT22;13779;-33.886;151.198;2023-06-04T10:04:31;17.10;99.90
25991;DHT22;13779;-33.886;151.198;2023-06-04T10:07:05;17.10;99.90
25991;DHT22;13779;-33.886;151.198;2023-06-04T10:09:40;17.10;99.90
25991;DHT22;13779;-33.886;151.198;2023-06-04T10:12:25;17.10;99.90
25991;DHT22;13779;-33.886;151.198;2023-06-04T10:15:02;17.10;99.90
25991;DHT22;13779;-33.886;151.198;2023-06-04T10:17:37;17.10;99.90
25991;DHT22;13779;-33.886;151.198;2023-06-04T10:20:08;17.10;99.90
25991;DHT22;13779;-33.886;151.198;2023-06-04T10:22:40;17.10;99.90
25991;DHT22;13779;-33.886;151.198;2023-06-04T10:25:11;17.10;99.90
25991;DHT22;13779;-33.886;151.198;2023-06-04T10:27:42;17.10;99.90
25991;DHT22;13779;-33.886;151.198;2023-06-04T10:30:13;17.00;99.90
25991;DHT22;13779;-33.886;151.198;2023-06-04T10:32:44;17.10;99.90
25991;DHT22;13779;-33.886;151.198;2023-06-04T10:35:16;17.10;99.90
25991;DHT22;13779;-33.886;151.198;2023-06-04T10:37:47;17.00;99.90
25991;DHT22;13779;-33.886;151.198;2023-06-04T10:40:17;17.00;99.90
25991;DHT22;13779;-33.886;151.198;2023-06-04T10:42:48;17.10;99.90
25991;DHT22;13779;-33.886;151.198;2023-06-04T10:45:29;17.10;99.90
25991;DHT22;13779;-33.886;151.198;2023-06-04T10:48:04;17.10;99.90
25991;DHT22;13779;-33.886;151.198;2023-06-04T10:50:57;17.00;99.90
25991;DHT22;13779;-33.886;151.198;2023-06-04T10:53:35;17.10;99.90
25991;DHT22;13779;-33.886;151.198;2023-06-04T10:56:06;17.00;99.90
25991;DHT22;13779;-33.886;151.198;2023-06-04T10:58:37;17.00;99.90
25991;DHT22;13779;-33.886;151.198;2023-06-04T11:01:08;17.00;99.90
25991;DHT22;13779;-33.886;151.198;2023-06-04T11:03:39;17.00;99.90
25991;DHT22;13779;-33.886;151.198;2023-06-04T11:06:16;17.00;99.90
25991;DHT22;13779;-33.886;151.198;2023-06-04T11:08:48;17.00;99.90
25991;DHT22;13779;-33.886;151.198;2023-06-04T11:11:18;17.00;99.90
25991;DHT22;13779;-33.886;151.198;2023-06-04T11:13:49;17.00;99.90
25991;DHT22;13779;-33.886;151.198;2023-06-04T11:16:20;17.00;99.90
25991;DHT22;13779;-33.886;151.198;2023-06-04T11:18:56;17.00;99.90
25991;DHT22;13779;-33.886;151.198;2023-06-04T11:21:28;17.00;99.90
25991;DHT22;13779;-33.886;151.198;2023-06-04T11:24:00;17.00;99.90
25991;DHT22;13779;-33.886;151.198;2023-06-04T11:26:32;17.00;99.90
25991;DHT22;13779;-33.886;151.198;2023-06-04T11:29:13;17.00;99.90
25991;DHT22;13779;-33.886;151.198;2023-06-04T11:31:45;17.00;99.90
25991;DHT22;13779;-33.886;151.198;2023-06-04T11:34:26;17.00;99.90
25991;DHT22;13779;-33.886;151.198;2023-06-04T11:37:11;17.00;99.90
25991;DHT22;13779;-33.886;151.198;2023-06-04T11:39:42;17.00;99.90
25991;DHT22;13779;-33.886;151.198;2023-06-04T11:42:15;17.00;99.90
25991;DHT22;13779;-33.886;151.198;2023-06-04T11:44:46;17.00;99.90
25991;DHT22;13779;-33.886;151.198;2023-06-04T11:47:19;17.00;99.90
25991;DHT22;13779;-33.886;151.198;2023-06-04T11:49:56;17.00;99.90
25991;DHT22;13779;-33.886;151.198;2023-06-04T11:52:32;17.00;99.90
25991;DHT22;13779;-33.886;151.198;2023-06-04T11:55:05;17.00;99.90
25991;DHT22;13779;-33.886;151.198;2023-06-04T11:57:39;17.00;99.90
25991;DHT22;13779;-33.886;151.198;2023-06-04T12:00:10;17.00;99.90
25991;DHT22;13779;-33.886;151.198;2023-06-04T12:02:55;17.00;99.90
25991;DHT22;13779;-33.886;151.198;2023-06-04T12:05:31;17.10;99.90
25991;DHT22;13779;-33.886;151.198;2023-06-04T12:08:09;17.00;99.90
25991;DHT22;13779;-33.886;151.198;2023-06-04T12:10:41;17.00;99.90
25991;DHT22;13779;-33.886;151.198;2023-06-04T12:13:12;17.00;99.90
25991;DHT22;13779;-33.886;151.198;2023-06-04T12:15:42;17.00;99.90
25991;DHT22;13779;-33.886;151.198;2023-06-04T12:18:24;17.10;99.90
25991;DHT22;13779;-33.886;151.198;2023-06-04T12:21:20;17.10;99.90
25991;DHT22;13779;-33.886;151.198;2023-06-04T12:24:14;17.00;99.90
25991;DHT22;13779;-33.886;151.198;2023-06-04T12:26:48;17.00;99.90
25991;DHT22;13779;-33.886;151.198;2023-06-04T12:29:22;17.00;99.90
25991;DHT22;13779;-33.886;151.198;2023-06-04T12:32:07;16.90;99.90
25991;DHT22;13779;-33.886;151.198;2023-06-04T12:34:40;16.90;99.90
25991;DHT22;13779;-33.886;151.198;2023-06-04T12:37:13;16.90;99.90
25991;DHT22;13779;-33.886;151.198;2023-06-04T12:39:44;17.00;99.90
25991;DHT22;13779;-33.886;151.198;2023-06-04T12:42:15;17.00;99.90
25991;DHT22;13779;-33.886;151.198;2023-06-04T12:44:47;16.90;99.90
25991;DHT22;13779;-33.886;151.198;2023-06-04T12:47:18;17.00;99.90
25991;DHT22;13779;-33.886;151.198;2023-06-04T12:49:50;17.00;99.90
25991;DHT22;13779;-33.886;151.198;2023-06-04T12:52:22;17.00;99.90
25991;DHT22;13779;-33.886;151.198;2023-06-04T12:54:52;17.00;99.90
25991;DHT22;13779;-33.886;151.198;2023-06-04T12:57:24;17.00;99.90
25991;DHT22;13779;-33.886;151.198;2023-06-04T12:59:54;17.00;99.90
25991;DHT22;13779;-33.886;151.198;2023-06-04T13:02:34;16.90;99.90
25991;DHT22;13779;-33.886;151.198;2023-06-04T13:05:06;16.90;99.90
25991;DHT22;13779;-33.886;151.198;2023-06-04T13:07:36;16.90;99.90
25991;DHT22;13779;-33.886;151.198;2023-06-04T13:10:07;16.90;99.90
25991;DHT22;13779;-33.886;151.198;2023-06-04T13:12:38;16.90;99.90
25991;DHT22;13779;-33.886;151.198;2023-06-04T13:15:08;16.90;99.90
25991;DHT22;13779;-33.886;151.198;2023-06-04T13:17:39;16.90;99.90
25991;DHT22;13779;-33.886;151.198;2023-06-04T13:20:10;16.90;99.90
25991;DHT22;13779;-33.886;151.198;2023-06-04T13:22:41;16.90;99.90
25991;DHT22;13779;-33.886;151.198;2023-06-04T13:25:16;16.90;99.90
25991;DHT22;13779;-33.886;151.198;2023-06-04T13:27:49;16.90;99.90
25991;DHT22;13779;-33.886;151.198;2023-06-04T13:30:21;16.90;99.90
25991;DHT22;13779;-33.886;151.198;2023-06-04T13:32:52;16.90;99.90
25991;DHT22;13779;-33.886;151.198;2023-06-04T13:35:22;16.90;99.90
25991;DHT22;13779;-33.886;151.198;2023-06-04T13:37:52;16.90;99.90
25991;DHT22;13779;-33.886;151.198;2023-06-04T13:40:23;16.90;99.90
25991;DHT22;13779;-33.886;151.198;2023-06-04T13:42:57;16.90;99.90
25991;DHT22;13779;-33.886;151.198;2023-06-04T13:45:27;16.90;99.90
25991;DHT22;13779;-33.886;151.198;2023-06-04T13:47:58;16.90;99.90
25991;DHT22;13779;-33.886;151.198;2023-06-04T13:50:33;17.00;99.90
25991;DHT22;13779;-33.886;151.198;2023-06-04T13:53:04;16.90;99.90
25991;DHT22;13779;-33.886;151.198;2023-06-04T13:55:35;16.90;99.90
25991;DHT22;13779;-33.886;151.198;2023-06-04T13:58:06;16.90;99.90
25991;DHT22;13779;-33.886;151.198;2023-06-04T14:00:37;16.90;99.90
25991;DHT22;13779;-33.886;151.198;2023-06-04T14:03:08;16.90;99.90
25991;DHT22;13779;-33.886;151.198;2023-06-04T14:05:39;16.90;99.90
25991;DHT22;13779;-33.886;151.198;2023-06-04T14:08:10;16.90;99.90
25991;DHT22;13779;-33.886;151.198;2023-06-04T14:10:42;16.90;99.90
25991;DHT22;13779;-33.886;151.198;2023-06-04T14:13:13;16.90;99.90
25991;DHT22;13779;-33.886;151.198;2023-06-04T14:15:43;17.00;99.90
25991;DHT22;13779;-33.886;151.198;2023-06-04T14:18:14;17.00;99.90
25991;DHT22;13779;-33.886;151.198;2023-06-04T14:20:45;17.00;99.90
25991;DHT22;13779;-33.886;151.198;2023-06-04T14:23:15;16.90;99.90
25991;DHT22;13779;-33.886;151.198;2023-06-04T14:25:49;16.90;99.90
25991;DHT22;13779;-33.886;151.198;2023-06-04T14:28:20;16.90;99.90
25991;DHT22;13779;-33.886;151.198;2023-06-04T14:30:53;16.90;99.90
25991;DHT22;13779;-33.886;151.198;2023-06-04T14:33:24;16.90;99.90
25991;DHT22;13779;-33.886;151.198;2023-06-04T14:35:55;16.90;99.90
25991;DHT22;13779;-33.886;151.198;2023-06-04T14:38:25;16.90;99.90
25991;DHT22;13779;-33.886;151.198;2023-06-04T14:41:00;16.90;99.90
25991;DHT22;13779;-33.886;151.198;2023-06-04T14:43:33;16.90;99.90
25991;DHT22;13779;-33.886;151.198;2023-06-04T14:46:05;16.90;99.90
25991;DHT22;13779;-33.886;151.198;2023-06-04T14:48:34;16.90;99.90
25991;DHT22;13779;-33.886;151.198;2023-06-04T14:51:05;16.80;99.90
25991;DHT22;13779;-33.886;151.198;2023-06-04T14:53:36;16.80;99.90
25991;DHT22;13779;-33.886;151.198;2023-06-04T14:56:10;16.90;99.90
25991;DHT22;13779;-33.886;151.198;2023-06-04T14:58:40;16.90;99.90
25991;DHT22;13779;-33.886;151.198;2023-06-04T15:01:10;16.90;99.90
25991;DHT22;13779;-33.886;151.198;2023-06-04T15:03:41;16.90;99.90
25991;DHT22;13779;-33.886;151.198;2023-06-04T15:06:11;16.80;99.90
25991;DHT22;13779;-33.886;151.198;2023-06-04T15:08:46;16.80;99.90
25991;DHT22;13779;-33.886;151.198;2023-06-04T15:11:16;16.80;99.90
25991;DHT22;13779;-33.886;151.198;2023-06-04T15:13:47;16.70;99.90
25991;DHT22;13779;-33.886;151.198;2023-06-04T15:16:17;16.70;99.90
25991;DHT22;13779;-33.886;151.198;2023-06-04T15:18:48;16.70;99.90
25991;DHT22;13779;-33.886;151.198;2023-06-04T15:21:18;16.70;99.90
25991;DHT22;13779;-33.886;151.198;2023-06-04T15:23:49;16.70;99.90
25991;DHT22;13779;-33.886;151.198;2023-06-04T15:26:19;16.70;99.90